createdAt,value
2019-05-19T00:00:07.738Z,17.12
2019-05-19T00:01:07.766Z,16.98
2019-05-19T00:02:07.711Z,17.00
2019-05-19T00:03:07.716Z,17.08
2019-05-19T00:04:07.763Z,17.07
2019-05-19T00:05:07.684Z,17.06
2019-05-19T00:06:07.677Z,17.11
2019-05-19T00:07:07.671Z,17.01
2019-05-19T00:08:07.655Z,17.08
2019-05-19T00:09:07.660Z,17.08
2019-05-19T00:10:07.643Z,17.07
2019-05-19T00:11:07.621Z,16.98
2019-05-19T00:12:07.619Z,16.97
2019-05-19T00:13:07.605Z,17.01
2019-05-19T00:14:07.620Z,16.96
2019-05-19T00:15:07.583Z,17.00
2019-05-19T00:16:07.568Z,16.97
2019-05-19T00:17:07.553Z,16.91
2019-05-19T00:18:07.547Z,16.94
2019-05-19T00:19:07.560Z,16.83
2019-05-19T00:20:07.569Z,16.76
2019-05-19T00:21:07.509Z,16.73
2019-05-19T00:22:07.497Z,16.75
2019-05-19T00:23:07.496Z,16.70
2019-05-19T00:24:07.485Z,16.79
2019-05-19T00:25:07.577Z,16.73
2019-05-19T00:26:07.464Z,16.78
2019-05-19T00:27:07.451Z,16.71
2019-05-19T00:28:07.437Z,16.75
2019-05-19T00:29:07.433Z,16.70
2019-05-19T00:30:07.449Z,16.66
2019-05-19T00:31:07.407Z,16.68
2019-05-19T00:32:07.407Z,16.60
2019-05-19T00:33:07.386Z,16.60
2019-05-19T00:34:07.369Z,16.66
2019-05-19T00:35:07.387Z,16.58
2019-05-19T00:36:07.354Z,16.64
2019-05-19T00:37:07.355Z,16.64
2019-05-19T00:38:07.326Z,16.61
2019-05-19T00:39:07.314Z,16.64
2019-05-19T00:40:07.380Z,16.57
2019-05-19T00:41:07.298Z,16.57
2019-05-19T00:42:07.308Z,16.58
2019-05-19T00:43:07.283Z,16.49
2019-05-19T00:44:07.263Z,16.56
2019-05-19T00:45:07.264Z,16.56
2019-05-19T00:46:07.239Z,16.56
2019-05-19T00:47:07.258Z,16.56
2019-05-19T00:48:07.236Z,16.48
2019-05-19T00:49:07.224Z,16.53
2019-05-19T00:50:07.225Z,16.46
2019-05-19T00:51:07.183Z,16.42
2019-05-19T00:52:07.172Z,16.41
2019-05-19T00:53:07.163Z,16.42
2019-05-19T00:54:07.168Z,16.43
2019-05-19T00:55:07.174Z,16.38
2019-05-19T00:56:07.132Z,16.28
2019-05-19T00:57:07.151Z,16.46
2019-05-19T00:58:07.117Z,16.35
2019-05-19T00:59:07.102Z,16.39
2019-05-19T01:00:07.107Z,16.42
2019-05-19T01:01:07.082Z,16.39
2019-05-19T01:02:07.089Z,16.27
2019-05-19T01:03:07.064Z,16.27
2019-05-19T01:04:07.058Z,16.23
2019-05-19T01:05:07.078Z,16.33
2019-05-19T01:06:07.036Z,16.27
2019-05-19T01:07:07.044Z,16.27
2019-05-19T01:08:07.007Z,16.20
2019-05-19T01:09:06.996Z,16.25
2019-05-19T01:10:07.012Z,16.42
2019-05-19T01:11:06.983Z,16.31
2019-05-19T01:12:06.986Z,16.23
2019-05-19T01:13:06.954Z,16.27
2019-05-19T01:14:16.257Z,16.24
2019-05-19T01:15:15.301Z,16.27
2019-05-19T01:16:15.818Z,16.27
2019-05-19T01:17:15.261Z,16.24
2019-05-19T01:18:15.288Z,16.21
2019-05-19T01:19:15.934Z,16.15
2019-05-19T01:20:15.249Z,16.15
2019-05-19T01:21:16.472Z,16.17
2019-05-19T01:22:15.451Z,16.05
2019-05-19T01:23:16.526Z,16.12
2019-05-19T01:24:18.068Z,16.04
2019-05-19T01:25:06.819Z,16.14
2019-05-19T01:26:06.824Z,16.20
2019-05-19T01:27:07.089Z,16.08
2019-05-19T01:28:06.819Z,16.02
2019-05-19T01:29:06.791Z,16.04
2019-05-19T01:30:06.804Z,16.07
2019-05-19T01:31:06.779Z,16.02
2019-05-19T01:32:06.745Z,16.02
2019-05-19T01:33:06.734Z,15.93
2019-05-19T01:34:06.728Z,16.02
2019-05-19T01:35:06.724Z,15.92
2019-05-19T01:36:06.739Z,16.02
2019-05-19T01:37:06.706Z,15.94
2019-05-19T01:38:06.679Z,15.93
2019-05-19T01:39:06.670Z,16.01
2019-05-19T01:40:06.673Z,15.93
2019-05-19T01:41:06.675Z,15.96
2019-05-19T01:42:06.638Z,16.05
2019-05-19T01:43:06.623Z,16.04
2019-05-19T01:44:06.627Z,15.97
2019-05-19T01:45:06.614Z,16.01
2019-05-19T01:46:06.613Z,16.04
2019-05-19T01:47:06.612Z,15.94
2019-05-19T01:48:06.589Z,15.90
2019-05-19T01:49:06.566Z,15.94
2019-05-19T01:50:17.723Z,15.93
2019-05-19T01:51:07.568Z,16.00
2019-05-19T01:52:06.535Z,15.93
2019-05-19T01:53:06.524Z,15.94
2019-05-19T01:54:06.510Z,15.94
2019-05-19T01:55:06.496Z,15.93
2019-05-19T01:56:06.511Z,15.89
2019-05-19T01:57:06.498Z,15.96
2019-05-19T01:58:06.479Z,15.96
2019-05-19T01:59:06.463Z,16.00
2019-05-19T02:00:06.441Z,15.89
2019-05-19T02:01:06.461Z,15.89
2019-05-19T02:02:06.425Z,15.97
2019-05-19T02:03:06.420Z,15.93
2019-05-19T02:04:06.416Z,15.92
2019-05-19T02:05:06.386Z,15.89
2019-05-19T02:06:06.412Z,15.89
2019-05-19T02:07:06.372Z,15.89
2019-05-19T02:08:06.357Z,15.86
2019-05-19T02:09:06.357Z,15.86
2019-05-19T02:10:06.335Z,15.74
2019-05-19T02:11:06.376Z,15.83
2019-05-19T02:12:06.321Z,15.83
2019-05-19T02:13:06.308Z,15.76
2019-05-19T02:14:06.294Z,15.83
2019-05-19T02:15:06.288Z,15.84
2019-05-19T02:16:06.299Z,15.78
2019-05-19T02:17:06.321Z,15.75
2019-05-19T02:18:06.251Z,15.75
2019-05-19T02:19:06.241Z,15.80
2019-05-19T02:20:06.234Z,15.65
2019-05-19T02:21:06.228Z,15.69
2019-05-19T02:22:06.230Z,15.74
2019-05-19T02:23:06.203Z,15.68
2019-05-19T02:24:06.186Z,15.78
2019-05-19T02:25:06.170Z,15.71
2019-05-19T02:26:06.168Z,15.71
2019-05-19T02:27:06.174Z,15.71
2019-05-19T02:28:06.152Z,15.68
2019-05-19T02:29:06.128Z,15.71
2019-05-19T02:30:06.123Z,15.75
2019-05-19T02:31:06.111Z,15.71
2019-05-19T02:32:06.127Z,15.75
2019-05-19T02:33:06.089Z,15.84
2019-05-19T02:34:06.075Z,15.80
2019-05-19T02:35:06.063Z,15.78
2019-05-19T02:36:06.055Z,15.78
2019-05-19T02:37:06.049Z,15.65
2019-05-19T02:38:06.061Z,15.74
2019-05-19T02:39:06.032Z,15.74
2019-05-19T02:40:06.008Z,15.74
2019-05-19T02:41:06.007Z,15.71
2019-05-19T02:42:06.021Z,15.68
2019-05-19T02:43:06.015Z,15.67
2019-05-19T02:44:05.971Z,15.68
2019-05-19T02:45:05.972Z,15.67
2019-05-19T02:46:05.945Z,15.69
2019-05-19T02:47:05.949Z,15.62
2019-05-19T02:48:05.923Z,15.56
2019-05-19T02:49:05.924Z,15.54
2019-05-19T02:50:05.911Z,15.60
2019-05-19T02:51:05.906Z,15.54
2019-05-19T02:52:05.910Z,15.57
2019-05-19T02:53:05.877Z,15.50
2019-05-19T02:54:05.868Z,15.49
2019-05-19T02:55:05.880Z,15.49
2019-05-19T02:56:05.858Z,15.41
2019-05-19T02:57:05.846Z,15.43
2019-05-19T02:58:05.811Z,15.44
2019-05-19T02:59:05.803Z,15.47
2019-05-19T03:00:05.794Z,15.43
2019-05-19T03:01:05.798Z,15.44
2019-05-19T03:02:05.806Z,15.47
2019-05-19T03:03:05.770Z,15.43
2019-05-19T03:04:05.754Z,15.44
2019-05-19T03:05:05.741Z,15.44
2019-05-19T03:06:05.734Z,15.46
2019-05-19T03:07:05.906Z,15.44
2019-05-19T03:08:05.711Z,15.38
2019-05-19T03:09:05.711Z,15.39
2019-05-19T03:10:05.692Z,15.41
2019-05-19T03:11:05.678Z,15.46
2019-05-19T03:12:05.685Z,15.46
2019-05-19T03:13:05.659Z,15.39
2019-05-19T03:14:05.647Z,15.41
2019-05-19T03:15:05.647Z,15.41
2019-05-19T03:16:05.634Z,15.43
2019-05-19T03:17:05.641Z,15.41
2019-05-19T03:18:05.637Z,15.39
2019-05-19T03:19:05.590Z,15.39
2019-05-19T03:20:05.595Z,15.39
2019-05-19T03:21:10.797Z,15.44
2019-05-19T03:22:06.566Z,15.44
2019-05-19T03:23:05.571Z,15.44
2019-05-19T03:24:05.539Z,15.53
2019-05-19T03:25:05.526Z,15.53
2019-05-19T03:26:05.521Z,15.43
2019-05-19T03:27:05.525Z,15.51
2019-05-19T03:28:05.518Z,15.47
2019-05-19T03:29:05.483Z,15.43
2019-05-19T03:30:05.495Z,15.46
2019-05-19T03:31:05.493Z,15.39
2019-05-19T03:32:11.807Z,15.34
2019-05-19T03:33:06.494Z,15.41
2019-05-19T03:34:05.437Z,15.31
2019-05-19T03:35:05.462Z,15.36
2019-05-19T03:36:05.418Z,15.35
2019-05-19T03:37:05.399Z,15.35
2019-05-19T03:38:05.407Z,15.39
2019-05-19T03:39:05.373Z,15.41
2019-05-19T03:40:05.367Z,15.46
2019-05-19T03:41:05.370Z,15.46
2019-05-19T03:42:05.367Z,15.41
2019-05-19T03:43:05.360Z,15.41
2019-05-19T03:44:05.320Z,15.44
2019-05-19T03:45:05.306Z,15.46
2019-05-19T03:46:05.300Z,15.41
2019-05-19T03:47:05.285Z,15.43
2019-05-19T03:48:05.311Z,15.46
2019-05-19T03:49:05.282Z,15.43
2019-05-19T03:50:05.266Z,15.44
2019-05-19T03:51:05.242Z,15.41
2019-05-19T03:52:05.240Z,15.50
2019-05-19T03:53:05.263Z,15.51
2019-05-19T03:54:05.211Z,15.49
2019-05-19T03:55:05.220Z,15.49
2019-05-19T03:56:05.204Z,15.57
2019-05-19T03:57:05.183Z,15.54
2019-05-19T03:58:05.196Z,15.60
2019-05-19T03:59:05.166Z,15.62
2019-05-19T04:00:05.145Z,15.68
2019-05-19T04:01:05.133Z,15.75
2019-05-19T04:02:05.151Z,15.65
2019-05-19T04:03:05.122Z,15.80
2019-05-19T04:04:05.130Z,15.82
2019-05-19T04:05:05.100Z,15.89
2019-05-19T04:06:05.084Z,15.90
2019-05-19T04:07:05.088Z,16.02
2019-05-19T04:08:05.058Z,16.05
2019-05-19T04:09:05.104Z,16.14
2019-05-19T04:10:05.052Z,16.12
2019-05-19T04:11:05.027Z,16.11
2019-05-19T04:12:05.028Z,16.21
2019-05-19T04:13:05.039Z,16.09
2019-05-19T04:14:05.025Z,16.17
2019-05-19T04:15:05.046Z,16.21
2019-05-19T04:16:04.973Z,16.21
2019-05-19T04:17:04.982Z,16.20
2019-05-19T04:18:04.956Z,16.30
2019-05-19T04:19:04.966Z,16.24
2019-05-19T04:20:04.935Z,16.33
2019-05-19T04:21:04.919Z,16.28
2019-05-19T04:22:04.924Z,16.35
2019-05-19T04:23:04.898Z,16.31
2019-05-19T04:24:04.908Z,16.35
2019-05-19T04:25:04.887Z,16.46
2019-05-19T04:26:04.868Z,16.56
2019-05-19T04:27:04.909Z,16.56
2019-05-19T04:28:04.856Z,16.49
2019-05-19T04:29:04.851Z,16.56
2019-05-19T04:30:04.831Z,16.53
2019-05-19T04:31:04.814Z,16.58
2019-05-19T04:32:04.806Z,16.61
2019-05-19T04:33:04.815Z,16.61
2019-05-19T04:34:04.802Z,16.64
2019-05-19T04:35:04.767Z,16.64
2019-05-19T04:36:04.758Z,16.68
2019-05-19T04:37:04.749Z,16.63
2019-05-19T04:38:04.744Z,16.68
2019-05-19T04:39:04.755Z,16.75
2019-05-19T04:40:04.716Z,16.71
2019-05-19T04:41:04.704Z,16.78
2019-05-19T04:42:04.691Z,16.83
2019-05-19T04:43:04.702Z,16.78
2019-05-19T04:44:04.704Z,16.82
2019-05-19T04:45:04.669Z,16.82
2019-05-19T04:46:04.656Z,16.93
2019-05-19T04:47:04.662Z,16.91
2019-05-19T04:48:08.678Z,16.93
2019-05-19T04:49:04.652Z,16.98
2019-05-19T04:50:04.606Z,17.00
2019-05-19T04:51:04.601Z,16.88
2019-05-19T04:52:07.079Z,16.96
2019-05-19T04:53:04.582Z,17.06
2019-05-19T04:54:04.660Z,17.12
2019-05-19T04:55:04.571Z,17.07
2019-05-19T04:56:04.541Z,17.11
2019-05-19T04:57:04.538Z,17.14
2019-05-19T04:58:04.541Z,17.22
2019-05-19T04:59:04.537Z,17.26
2019-05-19T05:00:04.507Z,17.33
2019-05-19T05:01:04.500Z,17.40
2019-05-19T05:02:04.477Z,17.54
2019-05-19T05:03:04.473Z,17.63
2019-05-19T05:04:04.489Z,17.87
2019-05-19T05:05:04.452Z,17.92
2019-05-19T05:06:04.449Z,18.17
2019-05-19T05:07:04.436Z,18.23
2019-05-19T05:08:04.422Z,18.27
2019-05-19T05:09:04.466Z,18.42
2019-05-19T05:10:04.391Z,18.29
2019-05-19T05:11:04.383Z,18.37
2019-05-19T05:12:04.369Z,18.39
2019-05-19T05:13:04.362Z,18.30
2019-05-19T05:14:04.365Z,18.42
2019-05-19T05:15:04.345Z,18.39
2019-05-19T05:16:04.335Z,18.35
2019-05-19T05:17:04.320Z,18.35
2019-05-19T05:18:04.317Z,18.41
2019-05-19T05:19:04.316Z,18.27
2019-05-19T05:20:04.297Z,18.41
2019-05-19T05:21:04.278Z,18.36
2019-05-19T05:22:04.284Z,18.33
2019-05-19T05:23:04.251Z,18.42
2019-05-19T05:24:04.262Z,18.35
2019-05-19T05:25:04.274Z,18.42
2019-05-19T05:26:04.221Z,18.51
2019-05-19T05:27:04.215Z,18.42
2019-05-19T05:28:04.217Z,18.48
2019-05-19T05:29:04.213Z,18.50
2019-05-19T05:30:04.203Z,18.51
2019-05-19T05:31:04.166Z,18.47
2019-05-19T05:32:04.160Z,18.51
2019-05-19T05:33:04.150Z,18.52
2019-05-19T05:34:04.170Z,18.48
2019-05-19T05:35:04.157Z,18.48
2019-05-19T05:36:04.157Z,18.54
2019-05-19T05:37:04.110Z,18.51
2019-05-19T05:38:04.131Z,18.52
2019-05-19T05:39:04.106Z,18.45
2019-05-19T05:40:04.091Z,18.47
2019-05-19T05:41:04.074Z,18.41
2019-05-19T05:42:04.053Z,18.42
2019-05-19T05:43:04.038Z,18.41
2019-05-19T05:44:04.056Z,18.37
2019-05-19T05:45:04.032Z,18.37
2019-05-19T05:46:04.020Z,18.33
2019-05-19T05:47:04.014Z,18.36
2019-05-19T05:48:03.987Z,18.39
2019-05-19T05:49:04.002Z,18.35
2019-05-19T05:50:03.993Z,18.27
2019-05-19T05:51:03.980Z,18.30
2019-05-19T05:52:04.001Z,18.41
2019-05-19T05:53:03.941Z,18.42
2019-05-19T05:54:03.923Z,18.42
2019-05-19T05:55:03.926Z,18.52
2019-05-19T05:56:03.906Z,18.47
2019-05-19T05:57:03.895Z,18.55
2019-05-19T05:58:03.891Z,18.51
2019-05-19T05:59:03.864Z,18.47
2019-05-19T06:00:03.904Z,18.51
2019-05-19T06:01:03.853Z,18.52
2019-05-19T06:02:12.681Z,18.44
2019-05-19T06:03:03.831Z,18.51
2019-05-19T06:04:03.837Z,18.55
2019-05-19T06:05:03.825Z,18.50
2019-05-19T06:06:03.798Z,18.60
2019-05-19T06:07:03.808Z,18.57
2019-05-19T06:08:03.787Z,18.67
2019-05-19T06:09:03.775Z,18.69
2019-05-19T06:10:03.797Z,18.69
2019-05-19T06:11:03.739Z,18.65
2019-05-19T06:12:03.754Z,18.63
2019-05-19T06:13:03.815Z,18.70
2019-05-19T06:14:03.714Z,18.60
2019-05-19T06:15:03.713Z,18.63
2019-05-19T06:16:03.696Z,18.55
2019-05-19T06:17:03.678Z,18.52
2019-05-19T06:18:03.663Z,18.62
2019-05-19T06:19:03.651Z,18.51
2019-05-19T06:20:04.449Z,18.55
2019-05-19T06:21:03.632Z,18.55
2019-05-19T06:22:03.624Z,18.48
2019-05-19T06:23:03.611Z,18.51
2019-05-19T06:24:03.601Z,18.50
2019-05-19T06:25:03.620Z,18.52
2019-05-19T06:26:03.586Z,18.60
2019-05-19T06:27:03.583Z,18.65
2019-05-19T06:28:03.557Z,18.57
2019-05-19T06:29:03.549Z,18.63
2019-05-19T06:30:03.551Z,18.63
2019-05-19T06:31:03.542Z,18.62
2019-05-19T06:32:03.523Z,18.66
2019-05-19T06:33:03.521Z,18.65
2019-05-19T06:34:03.497Z,18.65
2019-05-19T06:35:03.528Z,18.65
2019-05-19T06:36:03.714Z,18.69
2019-05-19T06:37:03.458Z,18.67
2019-05-19T06:38:03.612Z,18.72
2019-05-19T06:39:03.456Z,18.82
2019-05-19T06:40:03.465Z,18.70
2019-05-19T06:41:03.424Z,18.75
2019-05-19T06:42:03.422Z,18.87
2019-05-19T06:43:03.400Z,18.87
2019-05-19T06:44:03.597Z,18.85
2019-05-19T06:45:03.411Z,18.95
2019-05-19T06:46:03.386Z,18.90
2019-05-19T06:47:03.361Z,18.95
2019-05-19T06:48:03.349Z,18.95
2019-05-19T06:49:03.331Z,19.00
2019-05-19T06:50:03.384Z,18.88
2019-05-19T06:51:03.316Z,19.00
2019-05-19T06:52:03.310Z,18.90
2019-05-19T06:53:13.713Z,18.91
2019-05-19T06:54:04.285Z,18.91
2019-05-19T06:55:03.297Z,19.04
2019-05-19T06:56:03.266Z,19.07
2019-05-19T06:57:03.257Z,19.06
2019-05-19T06:58:03.238Z,19.21
2019-05-19T06:59:03.230Z,19.19
2019-05-19T07:00:03.264Z,19.18
2019-05-19T07:01:03.212Z,19.23
2019-05-19T07:02:03.204Z,19.23
2019-05-19T07:03:03.184Z,19.32
2019-05-19T07:04:03.191Z,19.26
2019-05-19T07:05:03.166Z,19.37
2019-05-19T07:06:03.169Z,19.37
2019-05-19T07:07:03.182Z,19.40
2019-05-19T07:08:03.142Z,19.50
2019-05-19T07:09:03.121Z,19.54
2019-05-19T07:10:04.029Z,19.66
2019-05-19T07:11:03.375Z,19.63
2019-05-19T07:12:03.106Z,19.56
2019-05-19T07:13:03.104Z,19.62
2019-05-19T07:14:03.202Z,19.71
2019-05-19T07:15:03.101Z,19.63
2019-05-19T07:16:04.538Z,19.73
2019-05-19T07:17:03.046Z,19.88
2019-05-19T07:18:03.041Z,19.81
2019-05-19T07:19:03.055Z,19.88
2019-05-19T07:20:03.029Z,19.86
2019-05-19T07:21:03.014Z,19.83
2019-05-19T07:22:02.995Z,19.96
2019-05-19T07:23:02.979Z,19.96
2019-05-19T07:24:02.969Z,19.95
2019-05-19T07:25:02.975Z,19.98
2019-05-19T07:26:02.969Z,20.02
2019-05-19T07:27:02.942Z,19.96
2019-05-19T07:28:02.926Z,20.02
2019-05-19T07:29:02.914Z,20.02
2019-05-19T07:30:03.088Z,20.05
2019-05-19T07:31:02.911Z,20.18
2019-05-19T07:32:02.887Z,20.10
2019-05-19T07:33:02.873Z,20.24
2019-05-19T07:34:02.850Z,20.24
2019-05-19T07:35:02.841Z,20.24
2019-05-19T07:36:02.861Z,20.29
2019-05-19T07:37:02.827Z,20.31
2019-05-19T07:38:02.820Z,20.41
2019-05-19T07:39:02.863Z,20.36
2019-05-19T07:40:02.984Z,20.41
2019-05-19T07:41:02.795Z,20.52
2019-05-19T07:42:02.947Z,20.52
2019-05-19T07:43:02.898Z,20.52
2019-05-19T07:44:03.383Z,20.57
2019-05-19T07:45:02.765Z,20.57
2019-05-19T07:46:02.772Z,20.62
2019-05-19T07:47:02.739Z,20.61
2019-05-19T07:48:02.710Z,20.58
2019-05-19T07:49:02.695Z,20.62
2019-05-19T07:50:02.738Z,20.64
2019-05-19T07:51:02.810Z,20.70
2019-05-19T07:52:02.851Z,20.72
2019-05-19T07:53:02.743Z,20.79
2019-05-19T07:54:02.658Z,20.74
2019-05-19T07:55:02.637Z,20.77
2019-05-19T07:56:02.629Z,20.79
2019-05-19T07:57:02.607Z,20.95
2019-05-19T07:58:02.653Z,20.95
2019-05-19T07:59:02.601Z,20.89
2019-05-19T08:00:02.640Z,20.95
2019-05-19T08:01:02.577Z,20.85
2019-05-19T08:02:02.575Z,20.88
2019-05-19T08:03:02.686Z,20.97
2019-05-19T08:04:02.541Z,20.95
2019-05-19T08:05:03.296Z,20.94
2019-05-19T08:06:02.789Z,21.09
2019-05-19T08:07:02.504Z,21.12
2019-05-19T08:08:02.505Z,21.16
2019-05-19T08:09:02.479Z,21.14
2019-05-19T08:10:02.517Z,21.13
2019-05-19T08:11:02.495Z,21.17
2019-05-19T08:12:02.477Z,21.24
2019-05-19T08:13:02.451Z,21.28
2019-05-19T08:14:02.498Z,21.31
2019-05-19T08:15:02.474Z,21.35
2019-05-19T08:16:02.420Z,21.46
2019-05-19T08:17:02.434Z,21.52
2019-05-19T08:18:02.394Z,21.58
2019-05-19T08:19:02.392Z,21.56
2019-05-19T08:20:02.379Z,21.52
2019-05-19T08:21:02.354Z,21.67
2019-05-19T08:22:02.431Z,21.61
2019-05-19T08:23:02.370Z,21.61
2019-05-19T08:24:02.402Z,21.68
2019-05-19T08:25:03.304Z,21.74
2019-05-19T08:26:02.317Z,21.84
2019-05-19T08:27:02.671Z,21.83
2019-05-19T08:28:08.536Z,21.83
2019-05-19T08:29:03.388Z,21.79
2019-05-19T08:30:02.943Z,21.77
2019-05-19T08:31:02.249Z,21.83
2019-05-19T08:32:02.265Z,21.82
2019-05-19T08:33:02.222Z,21.86
2019-05-19T08:34:02.361Z,21.84
2019-05-19T08:35:04.393Z,21.90
2019-05-19T08:36:02.447Z,21.88
2019-05-19T08:37:02.223Z,22.00
2019-05-19T08:38:02.193Z,21.98
2019-05-19T08:39:02.157Z,22.09
2019-05-19T08:40:02.182Z,21.92
2019-05-19T08:41:02.154Z,21.96
2019-05-19T08:42:02.126Z,22.06
2019-05-19T08:43:02.153Z,22.05
2019-05-19T08:44:02.123Z,22.07
2019-05-19T08:45:02.108Z,22.05
2019-05-19T08:46:02.107Z,22.14
2019-05-19T08:47:02.068Z,22.15
2019-05-19T08:48:02.058Z,22.18
2019-05-19T08:49:02.075Z,22.10
2019-05-19T08:50:02.131Z,22.20
2019-05-19T08:51:02.039Z,22.27
2019-05-19T08:52:02.063Z,22.27
2019-05-19T08:53:02.008Z,22.12
2019-05-19T08:54:13.876Z,22.14
2019-05-19T08:55:03.033Z,22.22
2019-05-19T08:56:02.008Z,22.31
2019-05-19T08:57:01.995Z,22.28
2019-05-19T08:58:01.961Z,22.31
2019-05-19T08:59:01.941Z,22.36
2019-05-19T09:00:02.027Z,22.36
2019-05-19T09:01:01.945Z,22.37
2019-05-19T09:02:01.987Z,22.27
2019-05-19T09:03:02.084Z,22.25
2019-05-19T09:04:01.896Z,22.33
2019-05-19T09:05:01.875Z,22.27
2019-05-19T09:06:01.926Z,22.30
2019-05-19T09:07:01.856Z,22.33
2019-05-19T09:08:01.853Z,22.39
2019-05-19T09:09:01.844Z,22.27
2019-05-19T09:10:01.829Z,22.35
2019-05-19T09:11:01.997Z,22.33
2019-05-19T09:12:01.808Z,22.37
2019-05-19T09:13:01.824Z,22.43
2019-05-19T09:14:01.795Z,22.54
2019-05-19T09:15:01.790Z,22.55
2019-05-19T09:16:01.830Z,22.55
2019-05-19T09:17:02.036Z,22.54
2019-05-19T09:18:01.780Z,22.54
2019-05-19T09:19:01.748Z,22.62
2019-05-19T09:20:01.835Z,22.65
2019-05-19T09:22:02.876Z,22.68
2019-05-19T09:23:01.923Z,22.61
2019-05-19T09:24:01.701Z,22.55
2019-05-19T09:25:02.128Z,22.61
2019-05-19T09:26:01.673Z,22.61
2019-05-19T09:27:01.901Z,22.62
2019-05-19T09:28:01.633Z,22.37
2019-05-19T09:29:01.923Z,22.47
2019-05-19T09:30:01.619Z,22.43
2019-05-19T09:31:01.930Z,22.46
2019-05-19T09:32:01.738Z,22.43
2019-05-19T09:33:01.658Z,22.47
2019-05-19T09:34:01.574Z,22.47
2019-05-19T09:35:01.571Z,22.43
2019-05-19T09:36:01.572Z,22.45
2019-05-19T09:37:01.552Z,22.47
2019-05-19T09:38:01.585Z,22.57
2019-05-19T09:39:01.524Z,22.52
2019-05-19T09:40:01.507Z,22.52
2019-05-19T09:41:01.540Z,22.47
2019-05-19T09:42:01.527Z,22.47
2019-05-19T09:43:01.489Z,22.43
2019-05-19T09:44:01.465Z,22.42
2019-05-19T09:45:01.457Z,22.45
2019-05-19T09:46:01.470Z,22.43
2019-05-19T09:47:01.443Z,22.55
2019-05-19T09:48:01.429Z,22.58
2019-05-19T09:49:01.430Z,22.70
2019-05-19T09:50:01.422Z,22.70
2019-05-19T09:51:01.414Z,22.80
2019-05-19T09:52:01.373Z,22.82
2019-05-19T09:53:01.367Z,22.91
2019-05-19T09:54:01.363Z,22.91
2019-05-19T09:55:01.370Z,22.94
2019-05-19T09:56:01.362Z,22.91
2019-05-19T09:57:01.344Z,22.92
2019-05-19T09:58:01.312Z,22.90
2019-05-19T09:59:01.309Z,22.77
2019-05-19T10:00:01.301Z,22.73
2019-05-19T10:01:01.314Z,22.79
2019-05-19T10:02:01.280Z,22.85
2019-05-19T10:03:01.266Z,22.85
2019-05-19T10:04:01.253Z,22.88
2019-05-19T10:05:01.274Z,22.92
2019-05-19T10:06:01.273Z,23.04
2019-05-19T10:07:01.728Z,23.05
2019-05-19T10:08:01.208Z,23.09
2019-05-19T10:09:01.197Z,23.12
2019-05-19T10:10:01.222Z,23.07
2019-05-19T10:11:01.207Z,23.09
2019-05-19T10:12:01.198Z,23.32
2019-05-19T10:13:01.191Z,23.42
2019-05-19T10:14:01.147Z,23.57
2019-05-19T10:15:01.378Z,23.68
2019-05-19T10:16:01.158Z,23.70
2019-05-19T10:17:01.392Z,23.70
2019-05-19T10:18:01.151Z,23.70
2019-05-19T10:19:01.094Z,23.68
2019-05-19T10:20:01.081Z,23.70
2019-05-19T10:21:01.102Z,23.75
2019-05-19T10:22:01.064Z,23.84
2019-05-19T10:23:01.075Z,23.84
2019-05-19T10:24:01.055Z,23.84
2019-05-19T10:25:20.263Z,23.79
2019-05-19T10:26:02.053Z,23.78
2019-05-19T10:27:01.011Z,23.79
2019-05-19T10:28:01.022Z,23.79
2019-05-19T10:29:01.035Z,23.73
2019-05-19T10:30:01.740Z,23.73
2019-05-19T10:31:00.985Z,23.72
2019-05-19T10:32:00.971Z,23.68
2019-05-19T10:33:00.950Z,23.72
2019-05-19T10:34:00.961Z,23.69
2019-05-19T10:35:00.927Z,23.76
2019-05-19T10:36:00.935Z,23.70
2019-05-19T10:37:00.940Z,23.70
2019-05-19T10:38:00.896Z,23.68
2019-05-19T10:39:00.891Z,23.72
2019-05-19T10:40:00.888Z,23.69
2019-05-19T10:41:00.869Z,23.76
2019-05-19T10:42:00.893Z,23.88
2019-05-19T10:43:00.842Z,23.84
2019-05-19T10:44:00.961Z,23.90
2019-05-19T10:45:00.891Z,23.91
2019-05-19T10:46:00.822Z,23.91
2019-05-19T10:47:01.351Z,23.93
2019-05-19T10:48:00.819Z,23.95
2019-05-19T10:49:00.780Z,23.88
2019-05-19T10:50:00.775Z,23.97
2019-05-19T10:51:00.759Z,24.05
2019-05-19T10:52:00.766Z,24.06
2019-05-19T10:53:00.769Z,24.12
2019-05-19T10:54:00.740Z,24.39
2019-05-19T10:55:00.720Z,24.42
2019-05-19T10:56:00.714Z,24.45
2019-05-19T10:57:00.733Z,24.50
2019-05-19T10:58:00.696Z,24.53
2019-05-19T10:59:00.712Z,24.58
2019-05-19T11:00:00.672Z,24.53
2019-05-19T11:01:00.659Z,24.61
2019-05-19T11:02:00.664Z,24.65
2019-05-19T11:03:00.666Z,24.65
2019-05-19T11:04:00.636Z,24.81
2019-05-19T11:05:00.620Z,24.93
2019-05-19T11:06:00.620Z,25.17
2019-05-19T11:08:01.747Z,25.50
2019-05-19T11:09:21.572Z,26.02
2019-05-19T11:13:51.694Z,26.70
2019-05-19T11:16:48.745Z,26.40
2019-05-19T11:17:48.787Z,27.27
2019-05-19T11:18:48.720Z,26.77
2019-05-19T11:19:48.696Z,26.45
2019-05-19T11:20:48.705Z,26.30
2019-05-19T11:21:48.680Z,25.98
2019-05-19T11:22:48.727Z,26.48
2019-05-19T11:23:48.652Z,27.84
2019-05-19T11:24:48.666Z,28.78
2019-05-19T11:25:51.419Z,29.70
2019-05-19T11:26:48.670Z,30.58
2019-05-19T11:27:48.619Z,31.16
2019-05-19T11:28:48.630Z,31.48
2019-05-19T11:29:48.599Z,30.57
2019-05-19T11:30:48.597Z,31.01
2019-05-19T11:31:48.580Z,31.72
2019-05-19T11:32:48.579Z,32.29
2019-05-19T11:33:48.578Z,32.87
2019-05-19T11:34:48.570Z,33.28
2019-05-19T11:35:48.542Z,33.63
2019-05-19T11:36:48.535Z,33.91
2019-05-19T11:37:48.545Z,34.10
2019-05-19T11:38:48.549Z,34.27
2019-05-19T11:39:48.524Z,34.46
2019-05-19T11:40:48.530Z,34.47
2019-05-19T11:41:48.576Z,34.43
2019-05-19T11:42:48.487Z,34.58
2019-05-19T11:43:48.491Z,34.77
2019-05-19T11:44:48.464Z,34.54
2019-05-19T11:45:48.498Z,34.47
2019-05-19T11:46:48.469Z,34.58
2019-05-19T11:47:48.441Z,34.62
2019-05-19T11:48:48.452Z,34.99
2019-05-19T11:49:48.451Z,34.44
2019-05-19T11:50:48.419Z,33.79
2019-05-19T11:51:48.434Z,33.12
2019-05-19T11:52:48.394Z,32.41
2019-05-19T11:53:48.388Z,31.80
2019-05-19T11:54:48.385Z,30.97
2019-05-19T11:55:48.440Z,30.39
2019-05-19T11:56:48.400Z,30.13
2019-05-19T11:57:48.357Z,29.57
2019-05-19T11:58:48.335Z,29.82
2019-05-19T11:59:48.342Z,30.97
2019-05-19T12:00:48.383Z,31.57
2019-05-19T12:01:48.341Z,32.18
2019-05-19T12:02:48.304Z,32.72
2019-05-19T12:03:48.297Z,33.39
2019-05-19T12:04:48.284Z,33.76
2019-05-19T12:05:48.273Z,33.60
2019-05-19T12:06:48.290Z,33.78
2019-05-19T12:07:48.257Z,34.17
2019-05-19T12:08:48.249Z,34.65
2019-05-19T12:09:48.246Z,35.02
2019-05-19T12:10:48.233Z,35.33
2019-05-19T12:11:48.268Z,35.56
2019-05-19T12:12:48.223Z,34.54
2019-05-19T12:13:48.198Z,33.65
2019-05-19T12:14:48.216Z,33.45
2019-05-19T12:15:56.257Z,33.97
2019-05-19T12:16:48.236Z,34.30
2019-05-19T12:17:48.160Z,34.66
2019-05-19T12:18:48.152Z,34.92
2019-05-19T12:19:48.154Z,35.11
2019-05-19T12:20:48.140Z,35.18
2019-05-19T12:21:48.167Z,35.07
2019-05-19T12:22:48.125Z,35.10
2019-05-19T12:23:48.119Z,35.40
2019-05-19T12:24:48.106Z,35.62
2019-05-19T12:25:48.114Z,35.93
2019-05-19T12:26:48.116Z,36.07
2019-05-19T12:27:48.083Z,36.22
2019-05-19T12:28:48.067Z,36.50
2019-05-19T12:29:48.067Z,36.83
2019-05-19T12:30:48.067Z,36.91
2019-05-19T12:31:48.079Z,37.03
2019-05-19T12:32:48.073Z,37.18
2019-05-19T12:33:51.915Z,37.40
2019-05-19T12:34:48.034Z,37.88
2019-05-19T12:35:48.753Z,37.88
2019-05-19T12:36:48.013Z,37.81
2019-05-19T12:37:48.045Z,36.87
2019-05-19T12:38:47.990Z,35.85
2019-05-19T12:39:47.996Z,36.09
2019-05-19T12:40:47.968Z,36.37
2019-05-19T12:41:47.954Z,36.53
2019-05-19T12:42:47.978Z,36.47
2019-05-19T12:43:47.957Z,36.54
2019-05-19T12:44:47.948Z,37.03
2019-05-19T12:45:48.055Z,37.28
2019-05-19T12:46:47.967Z,37.21
2019-05-19T12:47:47.929Z,37.02
2019-05-19T12:48:47.899Z,36.93
2019-05-19T12:49:47.890Z,36.98
2019-05-19T12:50:47.892Z,37.29
2019-05-19T12:51:47.891Z,37.40
2019-05-19T12:52:47.907Z,37.46
2019-05-19T12:53:47.858Z,37.57
2019-05-19T12:54:47.854Z,37.96
2019-05-19T12:55:47.836Z,38.25
2019-05-19T12:56:47.873Z,38.37
2019-05-19T12:57:47.829Z,38.35
2019-05-19T12:58:47.823Z,38.41
2019-05-19T12:59:47.798Z,38.65